Time;durP1;ratioP1;P1;durP2;ratioP2;P2;SDS_P1;SDS_P2;PMS_P1;PMS_P2;Temp;Humidity;BMP_temperature;BMP_pressure;BME280_temperature;BME280_humidity;BME280_pressure;Samples;Min_cycle;Max_cycle;Signal;HPM_P1;HPM_P2
2022/11/20 00:00:02;;;;;;;15.02;11.15;;;-2.80;99.90;;;;;;5054260;28;20220;-57
2022/11/20 00:02:30;;;;;;;19.77;10.73;;;-2.80;99.90;;;;;;5053583;28;20202;-58
2022/11/20 00:04:57;;;;;;;13.77;9.60;;;-2.80;99.90;;;;;;5054644;28;20224;-57
2022/11/20 00:07:24;;;;;;;16.35;11.30;;;-2.80;99.90;;;;;;5053724;28;20236;-59
2022/11/20 00:09:51;;;;;;;16.80;11.05;;;-2.80;99.90;;;;;;5053592;28;20292;-58
2022/11/20 00:12:17;;;;;;;16.17;10.77;;;-2.70;99.90;;;;;;5053566;28;20205;-58
2022/11/20 00:14:44;;;;;;;17.40;11.57;;;-2.70;99.90;;;;;;5053522;28;20225;-58
2022/11/20 00:17:11;;;;;;;15.90;11.20;;;-2.70;99.90;;;;;;5075806;22;20237;-60
2022/11/20 00:19:39;;;;;;;18.35;10.90;;;-2.70;99.90;;;;;;5053336;28;20202;-60
2022/11/20 00:22:06;;;;;;;17.95;11.88;;;-2.70;99.90;;;;;;5053138;28;20201;-61
2022/11/20 00:24:32;;;;;;;14.38;10.75;;;-2.70;99.90;;;;;;5053223;28;20198;-61
2022/11/20 00:26:59;;;;;;;16.35;10.77;;;-2.80;99.90;;;;;;5056762;28;20209;-61
2022/11/20 00:29:26;;;;;;;18.83;12.27;;;-2.80;99.90;;;;;;5077152;28;20220;-61
2022/11/20 00:31:53;;;;;;;14.90;11.25;;;-2.80;99.90;;;;;;5076943;28;20688;-61
2022/11/20 00:34:19;;;;;;;16.25;11.95;;;-2.80;99.90;;;;;;5077602;28;20221;-61
2022/11/20 00:36:47;;;;;;;14.18;10.30;;;-2.80;99.90;;;;;;5077133;28;20220;-61
2022/11/20 00:39:14;;;;;;;15.98;9.77;;;-2.80;99.90;;;;;;5076876;28;20712;-60
2022/11/20 00:41:41;;;;;;;14.68;10.93;;;-2.80;99.90;;;;;;5077012;28;20665;-58
2022/11/20 00:44:08;;;;;;;13.50;10.20;;;-2.80;99.90;;;;;;5079253;28;20201;-60
2022/11/20 00:46:34;;;;;;;15.93;11.60;;;-2.80;99.90;;;;;;5077254;28;20201;-60
2022/11/20 00:49:01;;;;;;;16.50;10.65;;;-2.90;99.90;;;;;;5077472;28;20221;-60
2022/11/20 00:51:29;;;;;;;14.00;9.85;;;-2.90;99.90;;;;;;5076959;28;20201;-60
2022/11/20 00:53:59;;;;;;;13.02;9.63;;;-2.90;99.90;;;;;;5076586;28;20210;-60
2022/11/20 00:56:26;;;;;;;12.95;9.70;;;-2.90;99.90;;;;;;5077090;28;20185;-59
2022/11/20 00:58:54;;;;;;;12.77;10.25;;;-2.90;99.90;;;;;;5076540;28;20221;-59
2022/11/20 01:01:23;;;;;;;14.88;9.88;;;-2.90;99.90;;;;;;5076899;28;20205;-59
2022/11/20 01:03:52;;;;;;;17.13;10.90;;;-2.90;99.90;;;;;;5076981;28;20212;-59
2022/11/20 01:06:21;;;;;;;15.45;11.00;;;-3.00;99.90;;;;;;5076901;28;20250;-60
2022/11/20 01:08:49;;;;;;;17.67;10.90;;;-2.90;99.90;;;;;;5076872;28;20223;-59
2022/11/20 01:11:21;;;;;;;12.10;9.88;;;-2.90;99.90;;;;;;5076539;28;20207;-59
2022/11/20 01:13:49;;;;;;;16.52;11.70;;;-2.90;99.90;;;;;;5077042;28;20189;-59
2022/11/20 01:16:18;;;;;;;14.43;10.18;;;-2.90;99.90;;;;;;5076912;28;20251;-59
2022/11/20 01:18:47;;;;;;;16.85;11.68;;;-2.90;99.90;;;;;;5076006;28;20237;-59
2022/11/20 01:21:16;;;;;;;15.27;9.85;;;-2.80;99.90;;;;;;5075927;28;20691;-59
2022/11/20 01:23:44;;;;;;;15.85;10.65;;;-2.80;99.90;;;;;;5076134;28;20209;-60
2022/11/20 01:26:12;;;;;;;13.70;9.30;;;-2.80;99.90;;;;;;5076381;28;20204;-58
2022/11/20 01:28:41;;;;;;;15.77;10.10;;;-2.70;99.90;;;;;;5075931;28;20223;-60
2022/11/20 01:31:13;;;;;;;18.00;10.00;;;-2.70;99.90;;;;;;5075923;28;20203;-59
2022/11/20 01:33:41;;;;;;;14.43;9.52;;;-2.60;99.90;;;;;;5075983;28;20204;-59
2022/11/20 01:36:09;;;;;;;14.60;10.05;;;-2.60;99.90;;;;;;5075798;28;20221;-58
2022/11/20 01:38:36;;;;;;;15.35;10.45;;;-2.60;99.90;;;;;;5074959;28;20221;-58
2022/11/20 01:41:02;;;;;;;12.98;9.60;;;-2.60;99.90;;;;;;5075563;28;20205;-58
2022/11/20 01:43:28;;;;;;;12.15;8.10;;;-2.60;99.90;;;;;;5075986;28;20201;-58
2022/11/20 01:46:15;;;;;;;13.23;9.63;;;-2.60;99.90;;;;;;5075272;28;20203;-58
2022/11/20 01:48:49;;;;;;;11.98;8.15;;;-2.60;99.90;;;;;;5075444;28;20455;-59
2022/11/20 01:51:22;;;;;;;16.08;9.75;;;-2.60;99.90;;;;;;5075681;28;20276;-59
2022/11/20 01:53:50;;;;;;;13.82;9.35;;;-2.60;99.90;;;;;;5075581;28;20192;-60
2022/11/20 01:56:18;;;;;;;13.07;9.13;;;-2.60;99.90;;;;;;5075456;28;20223;-59
2022/11/20 01:58:50;;;;;;;20.27;9.48;;;-2.60;99.90;;;;;;5075615;28;20220;-59
2022/11/20 02:01:19;;;;;;;14.68;9.73;;;-2.60;99.90;;;;;;5075536;28;20186;-58
2022/11/20 02:03:46;;;;;;;12.93;8.15;;;-2.50;99.90;;;;;;5075654;28;20208;-58
2022/11/20 02:06:19;;;;;;;12.00;8.73;;;-2.50;99.90;;;;;;5075136;28;20672;-59
2022/11/20 02:08:45;;;;;;;14.27;9.32;;;-2.50;99.90;;;;;;5075765;28;20225;-58
2022/11/20 02:11:13;;;;;;;13.63;9.93;;;-2.40;99.90;;;;;;5076463;28;20208;-60
2022/11/20 02:13:42;;;;;;;11.60;8.88;;;-2.40;99.90;;;;;;5075589;28;20669;-59
2022/11/20 02:16:13;;;;;;;13.50;8.93;;;-2.40;99.90;;;;;;5075691;28;20324;-59
2022/11/20 02:18:41;;;;;;;12.07;9.52;;;-2.30;99.90;;;;;;5075034;28;20229;-59
2022/11/20 02:21:15;;;;;;;11.60;8.90;;;-2.30;99.90;;;;;;5075470;28;20288;-59
2022/11/20 02:23:59;;;;;;;15.13;10.20;;;-2.30;99.90;;;;;;5075303;28;20192;-60
2022/11/20 02:26:28;;;;;;;14.63;9.80;;;-2.20;99.90;;;;;;5075923;28;20178;-59
2022/11/20 02:28:55;;;;;;;12.05;9.27;;;-2.20;99.90;;;;;;5075576;28;20253;-59
2022/11/20 02:31:22;;;;;;;12.35;8.80;;;-2.20;99.90;;;;;;5075792;28;20201;-59
2022/11/20 02:33:54;;;;;;;17.52;10.68;;;-2.20;99.90;;;;;;5075456;28;20212;-59
2022/11/20 02:36:21;;;;;;;11.68;8.63;;;-2.20;99.90;;;;;;5075829;28;20320;-59
2022/11/20 02:38:49;;;;;;;16.38;9.07;;;-2.20;99.90;;;;;;5075125;28;20232;-59
2022/11/20 02:41:17;;;;;;;12.98;8.70;;;-2.10;99.90;;;;;;5075519;28;20201;-59
2022/11/20 02:43:44;;;;;;;12.43;9.02;;;-2.10;99.90;;;;;;5074661;28;20205;-59
2022/11/20 02:46:10;;;;;;;12.43;9.35;;;-2.10;99.90;;;;;;5074067;28;20293;-58
2022/11/20 02:48:37;;;;;;;13.25;9.20;;;-2.00;99.90;;;;;;5073905;28;20224;-59
2022/11/20 02:51:04;;;;;;;13.93;9.77;;;-2.00;99.90;;;;;;5074283;28;20205;-59
2022/11/20 02:53:31;;;;;;;11.93;9.10;;;-2.00;99.90;;;;;;5074667;28;20580;-59
2022/11/20 02:55:58;;;;;;;14.25;8.82;;;-2.00;99.90;;;;;;5074205;28;20720;-59
2022/11/20 02:58:26;;;;;;;10.77;7.78;;;-2.00;99.90;;;;;;5074407;28;20220;-59
2022/11/20 03:00:53;;;;;;;10.90;7.80;;;-2.00;99.90;;;;;;5074093;28;20205;-59
2022/11/20 03:03:20;;;;;;;13.65;9.73;;;-2.00;99.90;;;;;;5074395;28;20304;-59
2022/11/20 03:05:47;;;;;;;11.73;7.88;;;-2.00;99.90;;;;;;5074060;28;20665;-59
2022/11/20 03:08:13;;;;;;;15.48;9.05;;;-2.00;99.90;;;;;;5074177;28;20266;-58
2022/11/20 03:10:40;;;;;;;12.90;8.57;;;-2.00;99.90;;;;;;5074336;28;20201;-58
2022/11/20 03:13:07;;;;;;;13.68;9.23;;;-2.00;99.90;;;;;;5074196;28;20208;-58
2022/11/20 03:15:37;;;;;;;13.35;9.55;;;-2.00;99.90;;;;;;5074079;28;20228;-59
2022/11/20 03:18:04;;;;;;;12.95;8.98;;;-2.00;99.90;;;;;;5073774;28;20229;-59
2022/11/20 03:20:33;;;;;;;12.05;8.40;;;-1.90;99.90;;;;;;5073749;28;20690;-58
2022/11/20 03:22:59;;;;;;;11.65;7.93;;;-1.90;99.90;;;;;;5074007;28;20212;-59
2022/11/20 03:25:26;;;;;;;9.98;7.57;;;-1.90;99.90;;;;;;5073713;28;20197;-58
2022/11/20 03:27:54;;;;;;;10.90;9.00;;;-1.90;99.90;;;;;;5073621;28;20221;-60
2022/11/20 03:30:21;;;;;;;11.88;8.65;;;-1.90;99.90;;;;;;5073882;28;20201;-59
2022/11/20 03:32:49;;;;;;;10.05;8.35;;;-1.80;99.90;;;;;;5074518;28;20207;-59
2022/11/20 03:35:16;;;;;;;10.95;7.80;;;-1.80;99.90;;;;;;5075640;28;20224;-59
2022/11/20 03:37:43;;;;;;;15.70;9.88;;;-1.80;99.90;;;;;;5073625;28;20235;-59
2022/11/20 03:40:10;;;;;;;13.85;10.02;;;-1.80;99.90;;;;;;5074306;28;20212;-59
2022/11/20 03:42:46;;;;;;;11.65;9.10;;;-1.80;99.90;;;;;;5083034;28;20260;-59
2022/11/20 03:45:14;;;;;;;11.60;9.07;;;-1.70;99.90;;;;;;5083580;28;20187;-59
2022/11/20 03:47:40;;;;;;;13.30;9.90;;;-1.70;99.90;;;;;;5078014;28;20227;-59
2022/11/20 03:50:10;;;;;;;13.57;9.43;;;-1.70;99.90;;;;;;5076886;28;20201;-59
2022/11/20 03:52:37;;;;;;;13.60;9.52;;;-1.70;99.90;;;;;;5076768;28;20201;-60
2022/11/20 03:55:04;;;;;;;11.90;9.05;;;-1.70;99.90;;;;;;5075396;28;20588;-59
2022/11/20 03:57:31;;;;;;;11.70;8.40;;;-1.70;99.90;;;;;;5076944;28;20227;-60
2022/11/20 03:59:57;;;;;;;13.45;9.55;;;-1.70;99.90;;;;;;5077112;28;20208;-59
2022/11/20 04:02:24;;;;;;;13.00;8.88;;;-1.70;99.90;;;;;;5075955;28;20208;-59
2022/11/20 04:04:51;;;;;;;15.15;9.25;;;-1.70;99.90;;;;;;5075558;28;20226;-60
2022/11/20 04:10:35;;;;;;;14.10;8.73;;;-1.60;99.90;;;;;;5092723;28;20561;-59
2022/11/20 04:13:02;;;;;;;13.18;9.90;;;-1.60;99.90;;;;;;5094280;28;20204;-59
2022/11/20 04:15:28;;;;;;;13.82;9.40;;;-1.50;99.90;;;;;;5091557;28;20207;-59
2022/11/20 04:17:56;;;;;;;15.13;9.23;;;-1.50;99.90;;;;;;5091591;28;20227;-60
2022/11/20 04:23:05;;;;;;;14.32;8.80;;;-1.50;99.90;;;;;;5049421;28;20216;-62
2022/11/20 04:25:32;;;;;;;12.98;9.07;;;-1.50;99.90;;;;;;5050982;28;20202;-61
2022/11/20 04:28:00;;;;;;;13.23;8.05;;;-1.50;99.90;;;;;;5051582;28;20285;-60
2022/11/20 04:30:27;;;;;;;11.57;8.43;;;-1.50;99.90;;;;;;5050456;28;20218;-62
2022/11/20 04:32:54;;;;;;;12.23;8.73;;;-1.50;99.90;;;;;;5050409;28;20604;-63
2022/11/20 04:35:20;;;;;;;10.60;8.90;;;-1.50;99.90;;;;;;5050901;28;20204;-62
2022/11/20 04:37:47;;;;;;;13.38;8.60;;;-1.50;99.90;;;;;;5050388;28;20208;-62
2022/11/20 04:40:14;;;;;;;15.48;10.55;;;-1.50;99.90;;;;;;5050444;28;20202;-61
2022/11/20 04:42:41;;;;;;;12.77;9.63;;;-1.50;99.90;;;;;;5050372;28;20229;-62
2022/11/20 04:45:09;;;;;;;12.55;9.48;;;-1.50;99.90;;;;;;5050660;28;20221;-61
2022/11/20 04:47:36;;;;;;;15.45;9.93;;;-1.50;99.90;;;;;;5050254;28;20209;-62
2022/11/20 04:50:03;;;;;;;10.40;7.85;;;-1.40;99.90;;;;;;5050443;28;20591;-62
2022/11/20 04:52:30;;;;;;;12.85;8.77;;;-1.50;99.90;;;;;;5050298;28;20222;-62
2022/11/20 04:54:57;;;;;;;10.88;8.35;;;-1.50;99.90;;;;;;5049988;28;20198;-62
2022/11/20 04:57:23;;;;;;;15.57;8.85;;;-1.40;99.90;;;;;;5050347;28;20206;-62
2022/11/20 04:59:50;;;;;;;13.30;9.60;;;-1.50;99.90;;;;;;5050169;28;20201;-62
2022/11/20 05:02:18;;;;;;;11.77;9.02;;;-1.40;99.90;;;;;;5050094;28;20221;-62
2022/11/20 05:04:45;;;;;;;13.00;8.52;;;-1.50;99.90;;;;;;5056668;28;20202;-62
2022/11/20 05:07:12;;;;;;;11.52;8.30;;;-1.40;99.90;;;;;;5058298;28;20202;-62
2022/11/20 05:09:39;;;;;;;12.35;8.23;;;-1.40;99.90;;;;;;5059634;28;20708;-62
2022/11/20 05:12:08;;;;;;;13.77;8.65;;;-1.40;99.90;;;;;;5059760;28;20222;-64
2022/11/20 05:14:34;;;;;;;11.43;8.85;;;-1.40;99.90;;;;;;5060890;28;20206;-63
2022/11/20 05:17:01;;;;;;;12.27;9.00;;;-1.40;99.90;;;;;;5058318;28;20205;-62
2022/11/20 05:19:29;;;;;;;13.20;9.23;;;-1.30;99.90;;;;;;5060496;28;20198;-61
2022/11/20 05:21:57;;;;;;;11.70;8.63;;;-1.30;99.90;;;;;;5044415;28;20234;-62
2022/11/20 05:24:24;;;;;;;10.80;8.82;;;-1.30;99.90;;;;;;5042598;28;20211;-62
2022/11/20 05:26:50;;;;;;;11.52;8.20;;;-1.30;99.90;;;;;;5043772;28;20203;-63
2022/11/20 05:29:17;;;;;;;12.25;8.85;;;-1.30;99.90;;;;;;5042744;28;20694;-62
2022/11/20 05:31:44;;;;;;;13.15;8.55;;;-1.30;99.90;;;;;;5042772;28;20241;-62
2022/11/20 05:34:11;;;;;;;11.32;7.75;;;-1.30;99.90;;;;;;5042732;28;20198;-62
2022/11/20 05:36:39;;;;;;;10.70;8.30;;;-1.30;99.90;;;;;;5041408;28;20233;-62
2022/11/20 05:39:05;;;;;;;9.82;7.93;;;-1.30;99.90;;;;;;5040734;28;20248;-62
2022/11/20 05:41:34;;;;;;;10.90;7.80;;;-1.30;99.90;;;;;;5039635;28;20233;-62
2022/11/20 05:44:00;;;;;;;9.27;7.85;;;-1.30;99.90;;;;;;5039842;28;20214;-62
2022/11/20 05:46:28;;;;;;;11.65;8.02;;;-1.30;99.90;;;;;;5040474;28;20203;-62
2022/11/20 05:48:55;;;;;;;12.32;8.85;;;-1.30;99.90;;;;;;5041331;28;20578;-62
2022/11/20 05:51:21;;;;;;;10.70;7.88;;;-1.30;99.90;;;;;;5040975;28;20232;-62
2022/11/20 05:53:49;;;;;;;11.70;7.78;;;-1.30;99.90;;;;;;5044659;28;20748;-61
2022/11/20 05:56:18;;;;;;;11.15;8.35;;;-1.30;99.90;;;;;;5040464;28;20198;-62
2022/11/20 05:58:46;;;;;;;12.05;8.23;;;-1.40;99.90;;;;;;5042691;28;20203;-63
2022/11/20 06:01:15;;;;;;;11.40;9.15;;;-1.30;99.90;;;;;;5038253;28;20230;-63
2022/11/20 06:03:45;;;;;;;13.48;8.20;;;-1.30;99.90;;;;;;5036878;28;20213;-61
2022/11/20 06:06:12;;;;;;;10.93;8.35;;;-1.30;99.90;;;;;;5036670;28;20187;-62
2022/11/20 06:08:39;;;;;;;13.20;8.27;;;-1.20;99.90;;;;;;5036468;28;20210;-62
2022/11/20 06:11:09;;;;;;;12.93;8.95;;;-1.30;99.90;;;;;;5036792;28;20313;-62
2022/11/20 06:13:36;;;;;;;11.90;7.93;;;-1.20;99.90;;;;;;5037395;28;20559;-62
2022/11/20 06:16:04;;;;;;;9.23;7.55;;;-1.30;99.90;;;;;;5036864;28;20576;-62
2022/11/20 06:18:31;;;;;;;12.63;8.13;;;-1.30;99.90;;;;;;5036892;28;20206;-63
2022/11/20 06:21:04;;;;;;;10.45;7.45;;;-1.20;99.90;;;;;;5036774;28;20218;-61
2022/11/20 06:23:31;;;;;;;11.10;8.18;;;-1.20;99.90;;;;;;5037065;28;20186;-62
2022/11/20 06:25:58;;;;;;;10.57;7.28;;;-1.20;99.90;;;;;;5036364;28;20389;-62
2022/11/20 06:28:26;;;;;;;10.07;7.20;;;-1.20;99.90;;;;;;5035228;28;20666;-62
2022/11/20 06:30:53;;;;;;;9.68;7.45;;;-1.20;99.90;;;;;;5035072;28;20234;-63
2022/11/20 06:33:19;;;;;;;11.00;7.20;;;-1.20;99.90;;;;;;5034069;28;20206;-62
2022/11/20 06:35:46;;;;;;;10.65;7.63;;;-1.20;99.90;;;;;;5034552;28;20698;-61
2022/11/20 06:38:13;;;;;;;6.95;6.20;;;-1.30;99.90;;;;;;5034671;28;20207;-62
2022/11/20 06:40:41;;;;;;;12.00;7.75;;;-1.30;99.90;;;;;;5034974;28;20552;-62
2022/11/20 06:43:08;;;;;;;10.40;8.20;;;-1.30;99.90;;;;;;5035121;28;20206;-62
2022/11/20 06:45:36;;;;;;;9.63;7.13;;;-1.30;99.90;;;;;;5035141;28;20230;-61
2022/11/20 06:48:03;;;;;;;10.95;8.20;;;-1.30;99.90;;;;;;5034276;28;20209;-63
2022/11/20 06:50:30;;;;;;;9.15;7.15;;;-1.20;99.90;;;;;;5034731;28;20244;-62
2022/11/20 06:52:57;;;;;;;8.38;7.22;;;-1.20;99.90;;;;;;5034456;28;20208;-62
2022/11/20 06:55:23;;;;;;;9.50;7.55;;;-1.20;99.90;;;;;;5034581;28;20570;-62
2022/11/20 06:57:51;;;;;;;11.60;8.23;;;-1.10;99.90;;;;;;5034606;28;20199;-62
2022/11/20 07:00:18;;;;;;;9.52;8.05;;;-1.10;99.90;;;;;;5034307;28;20201;-62
2022/11/20 07:02:46;;;;;;;9.95;7.57;;;-1.10;99.90;;;;;;5033877;28;20686;-62
2022/11/20 07:05:13;;;;;;;11.63;6.80;;;-1.00;99.90;;;;;;5034067;28;20202;-62
2022/11/20 07:07:40;;;;;;;11.40;7.60;;;-1.00;99.90;;;;;;5034348;28;20213;-62
2022/11/20 07:10:07;;;;;;;9.25;7.03;;;-1.00;99.90;;;;;;5035352;28;20222;-62
2022/11/20 07:12:34;;;;;;;10.55;6.72;;;-1.10;99.90;;;;;;5034348;28;20222;-62
2022/11/20 07:15:01;;;;;;;10.07;7.25;;;-1.10;99.90;;;;;;5034149;28;20207;-62
2022/11/20 07:17:28;;;;;;;10.68;8.38;;;-1.10;99.90;;;;;;5033949;28;20198;-62
2022/11/20 07:19:56;;;;;;;10.98;8.38;;;-1.10;99.90;;;;;;5033676;28;20195;-62
2022/11/20 07:22:22;;;;;;;10.90;8.80;;;-1.10;99.90;;;;;;5033667;28;20249;-62
2022/11/20 07:24:49;;;;;;;12.05;9.10;;;-1.10;99.90;;;;;;5033534;28;20681;-62
2022/11/20 07:27:16;;;;;;;12.00;8.82;;;-1.10;99.90;;;;;;5033676;28;20206;-61
2022/11/20 07:29:42;;;;;;;11.90;8.77;;;-1.10;99.90;;;;;;5033471;28;20229;-62
2022/11/20 07:32:09;;;;;;;8.98;7.90;;;-1.00;99.90;;;;;;5034952;28;20572;-62
2022/11/20 07:34:36;;;;;;;12.60;8.77;;;-1.00;99.90;;;;;;5034497;28;20209;-62
2022/11/20 07:37:04;;;;;;;9.93;8.15;;;-1.00;99.90;;;;;;5034241;28;20225;-62
2022/11/20 07:39:31;;;;;;;9.43;7.90;;;-0.90;99.90;;;;;;5033966;28;20670;-63
2022/11/20 07:41:57;;;;;;;10.50;7.55;;;-0.90;99.90;;;;;;5035544;28;20230;-62
2022/11/20 07:44:24;;;;;;;10.48;8.48;;;-0.90;99.90;;;;;;5034986;28;20209;-60
2022/11/20 07:46:51;;;;;;;9.80;7.60;;;-0.80;99.90;;;;;;5035473;28;20285;-62
2022/11/20 07:49:17;;;;;;;9.82;7.35;;;-0.80;99.90;;;;;;5035579;28;20202;-62
2022/11/20 07:51:44;;;;;;;10.27;8.50;;;-0.80;99.90;;;;;;5035130;28;20674;-63
2022/11/20 07:54:12;;;;;;;11.20;7.60;;;-0.80;99.90;;;;;;5035179;28;20229;-63
2022/11/20 07:56:39;;;;;;;8.95;7.15;;;-0.70;99.90;;;;;;5034236;28;20229;-62
2022/11/20 07:59:06;;;;;;;11.10;7.65;;;-0.70;99.90;;;;;;5034310;28;20202;-63
2022/11/20 08:01:32;;;;;;;9.18;7.82;;;-0.70;99.90;;;;;;5034071;28;20222;-62
2022/11/20 08:03:59;;;;;;;8.65;6.78;;;-0.60;99.90;;;;;;5034216;28;20202;-62
2022/11/20 08:06:26;;;;;;;10.35;7.32;;;-0.60;99.90;;;;;;5033928;28;20332;-62
2022/11/20 08:08:53;;;;;;;11.23;7.32;;;-0.60;99.90;;;;;;5034168;28;20209;-61
2022/11/20 08:14:15;;;;;;;11.82;7.78;;;-0.60;99.90;;;;;;5033991;28;20317;-62
2022/11/20 08:16:43;;;;;;;9.68;7.78;;;-0.60;99.90;;;;;;5033587;28;20187;-62
2022/11/20 08:19:10;;;;;;;12.95;8.43;;;-0.60;99.90;;;;;;5034022;28;20198;-63
2022/11/20 08:21:37;;;;;;;11.38;7.57;;;-0.60;99.90;;;;;;5034137;28;20234;-62
2022/11/20 08:24:05;;;;;;;9.82;7.63;;;-0.60;99.90;;;;;;5033878;28;20667;-62
2022/11/20 08:26:33;;;;;;;8.93;7.25;;;-0.60;99.90;;;;;;5033950;28;20198;-62
2022/11/20 08:29:00;;;;;;;8.65;6.50;;;-0.60;99.90;;;;;;5033262;28;20206;-61
2022/11/20 08:31:28;;;;;;;11.00;7.97;;;-0.60;99.90;;;;;;5032993;28;20230;-62
2022/11/20 08:33:55;;;;;;;11.60;8.52;;;-0.50;99.90;;;;;;5032935;28;20576;-62
2022/11/20 08:36:22;;;;;;;11.35;8.30;;;-0.50;99.90;;;;;;5033558;28;20206;-61
2022/11/20 08:38:49;;;;;;;11.27;8.45;;;-0.40;99.90;;;;;;5032835;28;20202;-62
2022/11/20 08:44:02;;;;;;;13.60;8.68;;;-0.40;99.90;;;;;;5033213;28;20197;-62
2022/11/20 08:46:33;;;;;;;11.65;8.07;;;-0.30;99.90;;;;;;5032925;28;20199;-62
2022/11/20 08:49:00;;;;;;;10.95;7.35;;;-0.20;99.90;;;;;;5032827;28;20248;-63
2022/11/20 08:51:27;;;;;;;10.40;8.20;;;-0.10;99.90;;;;;;5032062;28;20226;-62
2022/11/20 08:53:53;;;;;;;9.15;7.97;;;0.00;99.90;;;;;;5032459;28;20210;-62
2022/11/20 08:56:20;;;;;;;12.73;9.07;;;0.00;99.90;;;;;;5034807;28;20245;-61
2022/11/20 08:58:47;;;;;;;9.88;8.20;;;0.10;99.90;;;;;;5036619;28;20203;-62
2022/11/20 09:01:15;;;;;;;12.07;8.98;;;0.20;99.90;;;;;;5036460;28;20237;-62
2022/11/20 09:03:42;;;;;;;13.38;8.52;;;0.30;99.90;;;;;;5036551;28;20210;-62
2022/11/20 09:06:09;;;;;;;13.20;8.23;;;0.30;99.90;;;;;;5036216;28;20559;-62
2022/11/20 09:08:36;;;;;;;11.75;8.38;;;0.40;99.90;;;;;;5036170;28;20301;-63
2022/11/20 09:11:04;;;;;;;9.27;7.70;;;0.50;99.90;;;;;;5036023;28;20247;-61
2022/11/20 09:13:31;;;;;;;10.65;7.97;;;0.50;99.90;;;;;;5036230;28;20198;-62
2022/11/20 09:16:00;;;;;;;10.95;7.40;;;0.50;99.90;;;;;;5035938;28;20232;-60
2022/11/20 09:18:30;;;;;;;9.18;7.05;;;0.60;99.90;;;;;;5035967;28;20199;-63
2022/11/20 09:20:58;;;;;;;10.52;7.90;;;0.60;99.90;;;;;;5035918;28;20313;-63
2022/11/20 09:23:25;;;;;;;9.40;7.75;;;0.60;99.90;;;;;;5037221;28;20237;-62
2022/11/20 09:25:52;;;;;;;12.05;8.73;;;0.60;99.90;;;;;;5037923;28;20209;-62
2022/11/20 09:28:19;;;;;;;10.40;7.15;;;0.70;99.90;;;;;;5036818;28;20206;-62
2022/11/20 09:30:45;;;;;;;12.85;7.70;;;0.80;99.90;;;;;;5037290;28;20223;-62
2022/11/20 09:33:12;;;;;;;10.20;7.50;;;0.80;99.90;;;;;;5036532;28;20206;-62
2022/11/20 09:35:40;;;;;;;10.00;7.78;;;0.90;99.90;;;;;;5036407;28;20252;-62
2022/11/20 09:38:08;;;;;;;8.60;6.88;;;0.90;99.90;;;;;;5037377;28;20212;-62
2022/11/20 09:40:39;;;;;;;10.70;7.20;;;0.90;99.90;;;;;;5037125;28;20194;-62
2022/11/20 09:43:13;;;;;;;9.48;8.15;;;1.00;99.90;;;;;;5037424;28;20232;-61
2022/11/20 09:45:51;;;;;;;10.30;9.20;;;1.00;99.90;;;;;;5035815;28;20635;-62
2022/11/20 09:48:43;;;;;;;9.50;7.65;;;1.10;99.90;;;;;;5036939;28;20186;-63
2022/11/20 09:51:21;;;;;;;10.73;8.07;;;1.10;99.90;;;;;;5036511;28;20230;-63
2022/11/20 09:54:00;;;;;;;10.10;7.93;;;1.30;99.90;;;;;;5035711;28;20634;-63
2022/11/20 09:56:28;;;;;;;9.18;7.60;;;1.40;99.90;;;;;;5036349;28;20198;-62
2022/11/20 09:58:58;;;;;;;10.40;8.15;;;1.60;99.90;;;;;;5043952;28;20206;-62
2022/11/20 10:01:32;;;;;;;9.30;7.28;;;1.70;99.90;;;;;;5045661;28;20229;-62
2022/11/20 10:04:03;;;;;;;11.13;7.60;;;1.80;99.90;;;;;;5047847;28;20187;-61
2022/11/20 10:06:33;;;;;;;9.43;7.88;;;1.90;99.90;;;;;;5047427;28;20187;-62
2022/11/20 10:09:17;;;;;;;9.90;7.50;;;2.00;99.90;;;;;;5047153;28;20213;-63
2022/11/20 10:11:52;;;;;;;11.18;8.10;;;2.00;99.90;;;;;;5042132;28;20241;-62
2022/11/20 10:14:31;;;;;;;11.95;7.05;;;2.00;99.90;;;;;;5043200;28;20553;-61
2022/11/20 10:17:06;;;;;;;13.73;8.88;;;2.10;99.90;;;;;;5035006;28;20191;-62
2022/11/20 10:19:51;;;;;;;8.40;7.40;;;2.10;99.90;;;;;;5035138;28;20190;-62
2022/11/20 10:22:35;;;;;;;9.68;6.75;;;2.10;99.90;;;;;;5035094;28;20226;-62
2022/11/20 10:25:08;;;;;;;8.02;6.30;;;2.20;99.90;;;;;;5035512;28;20194;-61
2022/11/20 10:27:49;;;;;;;9.15;7.10;;;2.20;99.90;;;;;;5036645;28;20194;-62
2022/11/20 10:30:19;;;;;;;10.55;7.63;;;2.10;99.60;;;;;;5035078;28;20206;-62
2022/11/20 10:32:49;;;;;;;8.48;6.68;;;2.20;99.70;;;;;;5035057;28;20329;-62
2022/11/20 10:35:22;;;;;;;8.70;6.50;;;2.20;99.30;;;;;;5034821;28;20207;-61
2022/11/20 10:37:55;;;;;;;7.05;6.35;;;2.20;98.90;;;;;;5035147;28;20241;-60
2022/11/20 10:40:28;;;;;;;7.63;5.82;;;2.30;98.60;;;;;;5035136;28;20258;-62
2022/11/20 10:42:57;;;;;;;11.10;7.68;;;2.40;98.50;;;;;;5034820;28;20226;-63
2022/11/20 10:45:37;;;;;;;9.77;6.82;;;2.50;98.10;;;;;;5035558;28;20210;-63
2022/11/20 10:48:13;;;;;;;8.13;6.28;;;2.50;97.80;;;;;;5035437;28;20198;-63
2022/11/20 10:50:54;;;;;;;8.75;6.60;;;2.60;97.80;;;;;;5034804;28;20230;-62
2022/11/20 10:53:44;;;;;;;6.10;5.38;;;2.70;97.50;;;;;;5035570;28;20183;-63
2022/11/20 10:56:19;;;;;;;7.45;5.43;;;2.70;96.70;;;;;;5035185;28;20267;-63
2022/11/20 10:58:55;;;;;;;6.25;5.10;;;2.60;96.10;;;;;;5036133;28;20197;-62
2022/11/20 11:01:23;;;;;;;7.47;5.57;;;2.60;96.10;;;;;;5035537;28;20218;-62
2022/11/20 11:03:50;;;;;;;5.53;4.60;;;2.50;95.60;;;;;;5035508;28;20323;-63
2022/11/20 11:06:22;;;;;;;6.18;4.88;;;2.50;95.40;;;;;;5035460;28;20320;-63
2022/11/20 11:08:54;;;;;;;7.75;6.05;;;2.50;95.30;;;;;;5035506;28;20186;-60
2022/11/20 11:11:23;;;;;;;5.95;5.35;;;2.50;95.20;;;;;;5035047;28;20233;-63
2022/11/20 11:13:51;;;;;;;7.05;5.88;;;2.50;95.10;;;;;;5034891;28;20260;-63
2022/11/20 11:16:22;;;;;;;5.63;5.00;;;2.60;94.70;;;;;;5034877;28;20218;-63
2022/11/20 11:18:49;;;;;;;6.10;5.50;;;2.60;94.20;;;;;;5034580;28;20186;-61
2022/11/20 11:21:23;;;;;;;6.05;5.20;;;2.60;94.10;;;;;;5034737;28;20581;-62
2022/11/20 11:23:59;;;;;;;7.65;5.63;;;2.60;93.60;;;;;;5035273;28;20194;-62
2022/11/20 11:26:27;;;;;;;9.15;5.80;;;2.60;93.50;;;;;;5036127;28;20186;-63
2022/11/20 11:28:55;;;;;;;7.43;5.70;;;2.50;93.30;;;;;;5035641;28;20203;-62
2022/11/20 11:31:27;;;;;;;6.20;5.50;;;2.50;93.50;;;;;;5034897;28;20230;-62
2022/11/20 11:34:05;;;;;;;8.10;6.30;;;2.50;93.40;;;;;;5035035;28;20208;-64
2022/11/20 11:36:33;;;;;;;6.40;5.13;;;2.50;93.20;;;;;;5034850;28;20233;-63
2022/11/20 11:39:03;;;;;;;7.47;5.97;;;2.60;93.20;;;;;;5034119;28;20202;-62
2022/11/20 11:41:34;;;;;;;7.00;5.45;;;2.60;93.20;;;;;;5034603;28;20218;-62
2022/11/20 11:46:58;;;;;;;6.43;5.28;;;2.70;92.90;;;;;;5033416;28;20325;-63
2022/11/20 11:49:25;;;;;;;8.45;5.75;;;2.70;92.70;;;;;;5033597;28;20214;-63
2022/11/20 11:52:05;;;;;;;6.72;5.75;;;2.70;92.60;;;;;;5033669;28;20230;-63
2022/11/20 11:54:39;;;;;;;7.63;5.45;;;2.70;92.10;;;;;;5033451;28;20186;-62
2022/11/20 11:57:12;;;;;;;10.25;7.45;;;2.60;91.90;;;;;;5033544;28;20186;-62
2022/11/20 11:59:47;;;;;;;9.25;7.82;;;2.50;91.70;;;;;;5033515;28;20197;-64
2022/11/20 12:02:26;;;;;;;8.27;7.03;;;2.30;91.40;;;;;;5033353;28;20226;-64
2022/11/20 12:04:58;;;;;;;8.25;6.15;;;2.20;91.80;;;;;;5033226;28;20193;-63
2022/11/20 12:07:37;;;;;;;16.23;8.45;;;2.10;92.30;;;;;;5033260;28;20207;-63
2022/11/20 12:10:13;;;;;;;8.65;6.75;;;2.20;92.60;;;;;;5033348;28;20198;-63
2022/11/20 12:12:43;;;;;;;11.70;7.10;;;2.20;92.70;;;;;;5033388;28;20225;-62
2022/11/20 12:15:13;;;;;;;10.77;7.75;;;2.30;92.70;;;;;;5034760;28;20218;-63
2022/11/20 12:17:40;;;;;;;9.32;7.00;;;2.30;92.70;;;;;;5034224;28;20202;-61
2022/11/20 12:20:13;;;;;;;9.10;7.43;;;2.40;92.60;;;;;;5034187;28;20202;-62
2022/11/20 12:22:49;;;;;;;10.05;8.05;;;2.40;92.40;;;;;;5033206;28;20228;-62
2022/11/20 12:25:21;;;;;;;11.15;6.80;;;2.40;92.30;;;;;;5033161;28;20222;-62
2022/11/20 12:28:17;;;;;;;10.32;7.78;;;2.40;92.20;;;;;;5034486;28;20301;-62
2022/11/20 12:30:57;;;;;;;10.25;8.23;;;2.40;92.30;;;;;;5034564;28;20198;-62
2022/11/20 12:33:49;;;;;;;9.20;7.03;;;2.40;92.30;;;;;;5038219;28;20193;-61
2022/11/20 12:36:26;;;;;;;9.70;6.95;;;2.40;92.20;;;;;;5038431;28;20191;-61
2022/11/20 12:39:03;;;;;;;9.60;7.60;;;2.50;92.10;;;;;;5037065;28;20418;-63
2022/11/20 12:45:10;;;;;;;7.45;6.75;;;2.70;91.80;;;;;;5038148;28;20201;-63
2022/11/20 12:47:52;;;;;;;10.85;8.43;;;2.80;91.60;;;;;;5033370;28;20420;-62
2022/11/20 12:50:29;;;;;;;8.25;7.43;;;2.80;90.40;;;;;;5037318;28;20201;-62
2022/11/20 12:53:02;;;;;;;8.88;7.57;;;2.80;90.40;;;;;;5038365;28;20226;-62
2022/11/20 12:55:42;;;;;;;8.38;6.95;;;2.80;90.40;;;;;;5039924;28;20187;-62
2022/11/20 12:58:20;;;;;;;9.65;7.10;;;2.80;90.30;;;;;;5039191;28;20191;-62
2022/11/20 13:00:56;;;;;;;10.27;6.90;;;2.70;90.10;;;;;;5038055;28;20207;-59
2022/11/20 13:03:37;;;;;;;10.15;7.50;;;2.70;90.10;;;;;;5038733;28;20568;-62
2022/11/20 13:06:14;;;;;;;9.95;8.60;;;2.60;89.80;;;;;;5036450;28;20423;-61
2022/11/20 13:08:43;;;;;;;11.68;8.65;;;2.60;90.00;;;;;;5039604;28;20186;-62